Time;durP1;ratioP1;P1;durP2;ratioP2;P2;SDS_P1;SDS_P2;PMS_P1;PMS_P2;Temp;Humidity;BMP_temperature;BMP_pressure;BME280_temperature;BME280_humidity;BME280_pressure;Samples;Min_cycle;Max_cycle;Signal;HPM_P1;HPM_P2
2022/01/31 00:01:23;;;;;;;18.45;7.72;;;;;;;20.93;32.79;94214.50;4951861;28;96869;-49
2022/01/31 00:03:49;;;;;;;14.43;8.02;;;;;;;21.00;32.72;94223.41;4952876;28;98287;-48
2022/01/31 00:06:14;;;;;;;18.15;8.18;;;;;;;20.96;32.81;94225.41;4951620;28;99558;-49
2022/01/31 00:08:40;;;;;;;14.10;6.95;;;;;;;20.90;31.90;94216.13;4951616;28;99408;-49
2022/01/31 00:11:06;;;;;;;12.82;6.80;;;;;;;20.59;31.72;94218.78;4951980;28;96860;-51
2022/01/31 00:13:36;;;;;;;12.35;6.78;;;;;;;20.41;31.62;94219.00;4952008;28;97287;-55
2022/01/31 00:16:02;;;;;;;16.10;7.88;;;;;;;20.25;31.31;94216.81;4952242;28;100161;-56
2022/01/31 00:18:28;;;;;;;14.82;8.30;;;;;;;20.19;31.43;94212.97;4951866;28;99420;-56
2022/01/31 00:20:53;;;;;;;19.40;9.02;;;;;;;20.41;31.23;94224.47;4952229;28;97219;-51
2022/01/31 00:23:19;;;;;;;14.48;7.70;;;;;;;20.68;30.06;94227.31;4951983;28;96979;-55
2022/01/31 00:25:44;;;;;;;21.98;7.68;;;;;;;20.38;30.09;94231.53;4949809;28;99583;-50
2022/01/31 00:28:10;;;;;;;16.20;6.75;;;;;;;20.11;30.21;94213.03;4949270;28;99536;-54
2022/01/31 00:30:35;;;;;;;14.05;6.55;;;;;;;20.17;29.38;94215.31;4951939;28;97616;-53
2022/01/31 00:33:01;;;;;;;13.63;5.78;;;;;;;19.98;29.86;94206.47;4951304;28;97082;-54
2022/01/31 00:35:26;;;;;;;14.57;6.65;;;;;;;20.03;29.58;94211.53;4950903;28;98046;-53
2022/01/31 00:37:52;;;;;;;16.70;6.50;;;;;;;20.11;29.18;94212.22;4950068;28;99399;-53
2022/01/31 00:40:18;;;;;;;14.70;6.70;;;;;;;20.08;29.37;94234.97;4951316;28;98273;-55
2022/01/31 00:42:43;;;;;;;16.83;7.72;;;;;;;20.21;29.67;94221.56;4951224;28;98545;-56
2022/01/31 00:45:17;;;;;;;16.38;7.53;;;;;;;20.32;29.62;94235.16;4952055;28;100248;-56
2022/01/31 00:47:46;;;;;;;10.73;6.68;;;;;;;20.01;29.09;94235.81;4953755;28;99550;-55
2022/01/31 00:50:13;;;;;;;13.18;6.40;;;;;;;19.88;28.52;94230.03;4954753;28;96799;-50
2022/01/31 00:52:40;;;;;;;10.27;6.10;;;;;;;19.75;28.54;94232.47;4955557;28;96930;-60
2022/01/31 00:55:06;;;;;;;10.23;5.63;;;;;;;19.82;28.11;94240.66;4955437;28;98171;-49
2022/01/31 00:57:32;;;;;;;15.77;5.47;;;;;;;19.79;27.64;94235.97;4945822;28;100502;-56
2022/01/31 00:59:57;;;;;;;12.18;4.90;;;;;;;20.05;26.53;94235.78;4943259;28;98113;-52
2022/01/31 01:02:23;;;;;;;11.00;4.00;;;;;;;20.05;26.69;94239.31;4942645;28;97353;-53
2022/01/31 01:04:49;;;;;;;9.98;5.13;;;;;;;20.34;25.75;94236.28;4943793;28;99282;-53
2022/01/31 01:07:14;;;;;;;20.95;6.28;;;;;;;20.59;25.52;94249.75;4943795;28;97181;-55
2022/01/31 01:09:44;;;;;;;16.88;6.05;;;;;;;20.72;25.00;94252.75;4945320;28;96858;-50
2022/01/31 01:12:10;;;;;;;11.55;6.50;;;;;;;20.72;25.37;94244.50;4947273;28;96876;-54
2022/01/31 01:14:36;;;;;;;14.00;5.65;;;;;;;20.82;24.80;94239.34;4942314;28;99589;-54
2022/01/31 01:17:01;;;;;;;16.08;5.93;;;;;;;20.82;24.54;94242.09;4941895;28;99133;-56
2022/01/31 01:19:26;;;;;;;17.55;6.05;;;;;;;20.83;24.40;94249.13;4943258;28;98200;-52
2022/01/31 01:21:52;;;;;;;10.70;5.05;;;;;;;20.76;24.66;94238.97;4941642;28;96949;-56
2022/01/31 01:24:17;;;;;;;9.80;4.55;;;;;;;20.70;24.68;94235.91;4941715;28;98479;-55
2022/01/31 01:26:43;;;;;;;8.55;3.83;;;;;;;20.62;24.88;94245.41;4943224;28;99606;-57
2022/01/31 01:29:09;;;;;;;11.95;4.32;;;;;;;20.55;24.91;94235.31;4943543;28;98410;-53
2022/01/31 01:31:34;;;;;;;6.60;3.78;;;;;;;20.53;25.50;94231.41;4952880;28;98098;-56
2022/01/31 01:34:00;;;;;;;7.68;4.00;;;;;;;20.56;25.07;94225.88;4956405;28;98165;-55
2022/01/31 01:36:25;;;;;;;10.07;5.03;;;;;;;20.64;24.76;94232.06;4951957;28;99480;-50
2022/01/31 01:38:51;;;;;;;9.98;5.72;;;;;;;20.60;25.33;94225.84;4941131;28;98417;-56
2022/01/31 01:41:16;;;;;;;11.00;5.53;;;;;;;20.66;25.56;94229.69;4943850;28;97020;-50
2022/01/31 01:43:42;;;;;;;11.18;5.65;;;;;;;20.74;25.04;94228.41;4941975;28;99621;-56
2022/01/31 01:46:07;;;;;;;16.83;5.78;;;;;;;20.75;24.70;94226.44;4939787;28;101076;-54
2022/01/31 01:48:32;;;;;;;12.43;6.30;;;;;;;20.70;25.02;94219.44;4942938;28;98154;-55
2022/01/31 01:50:58;;;;;;;12.52;4.90;;;;;;;20.47;25.47;94222.84;4940979;28;96997;-54
2022/01/31 01:53:25;;;;;;;8.55;4.95;;;;;;;20.47;25.77;94216.56;4941290;28;99558;-59
2022/01/31 01:55:52;;;;;;;9.90;5.22;;;;;;;20.57;25.42;94221.16;4944390;28;97904;-52
2022/01/31 01:58:19;;;;;;;11.57;4.88;;;;;;;20.71;24.59;94215.50;4942862;28;97375;-53
2022/01/31 02:00:58;;;;;;;8.32;4.75;;;;;;;20.78;24.33;94227.63;4940828;28;97708;-52
2022/01/31 02:03:24;;;;;;;14.57;6.05;;;;;;;20.80;24.34;94237.00;4944151;28;99562;-54
2022/01/31 02:05:49;;;;;;;13.38;6.15;;;;;;;20.79;24.19;94231.94;4942241;28;99362;-54
2022/01/31 02:08:17;;;;;;;11.35;6.43;;;;;;;20.65;24.22;94228.13;4945479;28;98204;-53
2022/01/31 02:10:42;;;;;;;11.23;6.50;;;;;;;20.74;23.40;94225.66;4945305;28;96989;-51
2022/01/31 02:13:08;;;;;;;11.35;6.80;;;;;;;20.76;24.23;94227.22;4944243;28;99642;-50
2022/01/31 02:15:34;;;;;;;10.52;5.82;;;;;;;20.61;24.84;94215.66;4944165;28;99271;-54
2022/01/31 02:18:00;;;;;;;11.68;6.00;;;;;;;20.56;25.03;94225.09;4944745;28;96874;-53
2022/01/31 02:20:25;;;;;;;10.85;6.13;;;;;;;20.74;24.28;94228.41;4944877;28;97024;-51
2022/01/31 02:22:50;;;;;;;13.55;6.53;;;;;;;20.77;24.49;94229.56;4945771;28;99564;-54
2022/01/31 02:25:16;;;;;;;12.40;7.68;;;;;;;20.76;24.02;94232.72;4942845;28;99378;-51
2022/01/31 02:27:41;;;;;;;13.40;8.48;;;;;;;20.73;24.66;94224.13;4944475;28;97123;-51
2022/01/31 02:30:09;;;;;;;17.48;10.70;;;;;;;20.77;24.09;94228.78;4944347;28;97105;-52
2022/01/31 02:32:34;;;;;;;16.65;10.75;;;;;;;20.73;24.38;94229.59;4944302;28;99078;-51
2022/01/31 02:35:00;;;;;;;19.60;12.07;;;;;;;20.71;23.77;94223.75;4943105;28;99471;-53
2022/01/31 02:37:25;;;;;;;22.23;12.55;;;;;;;20.18;24.49;94239.59;4944137;28;96825;-57
2022/01/31 02:39:50;;;;;;;21.23;13.23;;;;;;;20.18;25.13;94241.56;4944415;28;96929;-60
2022/01/31 02:42:16;;;;;;;22.20;16.77;;;;;;;20.26;25.60;94241.06;4943046;28;99149;-55
2022/01/31 02:44:43;;;;;;;23.70;16.30;;;;;;;20.20;25.58;94236.44;4943726;28;99292;-49
2022/01/31 02:47:16;;;;;;;21.27;15.38;;;;;;;20.22;25.77;94234.84;4944911;28;97032;-52
2022/01/31 02:49:49;;;;;;;18.55;13.60;;;;;;;20.42;25.97;94237.78;4943540;28;97395;-53
2022/01/31 02:52:15;;;;;;;14.38;9.68;;;;;;;20.50;25.01;94243.19;4940307;28;101162;-56
2022/01/31 02:54:41;;;;;;;17.55;10.68;;;;;;;20.53;24.70;94236.88;4944317;28;99262;-57
2022/01/31 02:57:06;;;;;;;19.27;10.25;;;;;;;20.42;25.36;94237.78;4943859;28;97427;-53
2022/01/31 02:59:32;;;;;;;15.70;9.40;;;;;;;20.54;24.70;94239.22;4943596;28;97051;-56
2022/01/31 03:01:58;;;;;;;14.68;9.10;;;;;;;20.38;24.72;94231.53;4942873;28;99483;-55
2022/01/31 03:04:23;;;;;;;14.73;9.52;;;;;;;20.36;24.56;94239.41;4943659;28;99245;-57
2022/01/31 03:06:49;;;;;;;23.13;13.32;;;;;;;20.48;24.96;94245.56;4944708;28;96946;-57
2022/01/31 03:09:15;;;;;;;26.08;17.27;;;;;;;19.97;25.77;94240.56;4943467;28;97047;-52
2022/01/31 03:11:41;;;;;;;25.08;17.08;;;;;;;20.31;24.95;94244.56;4943795;28;99770;-59
2022/01/31 03:14:06;;;;;;;25.80;17.48;;;;;;;20.33;25.24;94233.97;4942576;28;99554;-55
2022/01/31 03:16:33;;;;;;;26.08;20.50;;;;;;;20.51;24.83;94252.97;4941357;28;98254;-56
2022/01/31 03:18:59;;;;;;;27.13;20.08;;;;;;;20.54;25.06;94254.91;4942660;28;97040;-54
2022/01/31 03:21:24;;;;;;;24.65;17.67;;;;;;;20.52;25.18;94251.78;4941573;28;99633;-58
2022/01/31 03:23:50;;;;;;;22.02;15.95;;;;;;;20.53;25.18;94248.66;4942828;28;99012;-59
2022/01/31 03:26:17;;;;;;;19.95;15.68;;;;;;;20.55;24.95;94245.47;4942755;28;98054;-59
2022/01/31 03:28:43;;;;;;;22.35;16.02;;;;;;;20.63;24.93;94240.69;4942072;28;98677;-54
2022/01/31 03:31:08;;;;;;;19.77;14.73;;;;;;;20.56;24.71;94230.59;4942086;28;99516;-58
2022/01/31 03:33:34;;;;;;;23.50;15.77;;;;;;;20.57;24.71;94237.63;4941953;28;98374;-57
2022/01/31 03:35:59;;;;;;;20.08;14.95;;;;;;;20.57;24.81;94232.94;4942856;28;97385;-56
2022/01/31 03:38:25;;;;;;;20.90;15.02;;;;;;;20.54;24.63;94230.22;4941810;28;97314;-58
2022/01/31 03:40:50;;;;;;;18.90;13.50;;;;;;;20.50;24.76;94233.00;4940915;28;99683;-58
2022/01/31 03:43:16;;;;;;;18.02;13.35;;;;;;;20.49;24.92;94236.13;4939976;28;99783;-57
2022/01/31 03:45:41;;;;;;;21.20;12.43;;;;;;;20.53;24.77;94247.84;4940483;28;97040;-54
2022/01/31 03:48:08;;;;;;;18.45;11.13;;;;;;;20.49;24.92;94241.63;4940512;28;98650;-53
2022/01/31 03:50:33;;;;;;;14.80;11.07;;;;;;;20.37;24.93;94235.47;4942356;28;99542;-57
2022/01/31 03:52:59;;;;;;;15.65;11.13;;;;;;;20.46;24.94;94243.25;4941102;28;98298;-56
2022/01/31 03:55:24;;;;;;;14.18;10.95;;;;;;;20.48;24.62;94240.06;4941668;28;96780;-58
2022/01/31 03:57:49;;;;;;;16.67;10.82;;;;;;;20.46;25.09;94239.69;4946135;28;97028;-59
2022/01/31 04:00:15;;;;;;;16.05;10.43;;;;;;;20.38;24.68;94239.78;4943728;28;97901;-59
2022/01/31 04:02:41;;;;;;;13.98;9.57;;;;;;;20.42;24.83;94248.75;4941783;28;98890;-57
2022/01/31 04:05:07;;;;;;;16.33;9.65;;;;;;;20.29;25.12;94245.75;4943882;28;98061;-59
2022/01/31 04:07:33;;;;;;;15.73;10.00;;;;;;;20.27;25.41;94242.63;4944513;28;98743;-58
2022/01/31 04:09:58;;;;;;;15.43;9.38;;;;;;;20.32;24.92;94238.66;4943965;28;101150;-59
2022/01/31 04:12:24;;;;;;;15.48;9.32;;;;;;;20.27;24.97;94236.38;4941543;28;99498;-58
2022/01/31 04:14:49;;;;;;;11.45;8.77;;;;;;;20.32;25.14;94243.38;4943121;28;97618;-57
2022/01/31 04:17:18;;;;;;;11.25;8.50;;;;;;;20.34;25.42;94241.78;4942324;28;97012;-59
2022/01/31 04:19:44;;;;;;;11.00;7.97;;;;;;;20.40;25.39;94245.63;4942292;28;99750;-56
2022/01/31 04:22:13;;;;;;;12.88;7.15;;;;;;;20.38;25.31;94244.50;4942692;28;99316;-58
2022/01/31 04:24:41;;;;;;;9.93;6.93;;;;;;;20.29;25.48;94228.53;4942330;28;96972;-57
2022/01/31 04:27:06;;;;;;;11.02;7.05;;;;;;;20.40;25.36;94251.13;4942929;28;97362;-58
2022/01/31 04:29:35;;;;;;;7.80;5.75;;;;;;;20.30;25.34;94243.78;4943589;28;99394;-58
2022/01/31 04:32:00;;;;;;;10.52;6.30;;;;;;;20.36;25.00;94244.88;4943452;28;100387;-59
2022/01/31 04:34:26;;;;;;;9.25;5.43;;;;;;;20.38;25.17;94237.03;4942202;28;96804;-57
2022/01/31 04:36:52;;;;;;;10.13;5.82;;;;;;;20.37;25.15;94240.19;4941429;28;98108;-58
2022/01/31 04:39:19;;;;;;;9.70;5.35;;;;;;;20.33;25.18;94233.97;4959979;28;97836;-56
2022/01/31 04:41:45;;;;;;;7.28;5.38;;;;;;;20.31;25.02;94237.13;4961050;28;99297;-58
2022/01/31 04:44:11;;;;;;;10.43;4.75;;;;;;;20.37;24.91;94246.44;4950227;28;96838;-59
2022/01/31 04:46:37;;;;;;;7.47;4.72;;;;;;;20.34;25.21;94241.00;4942770;28;98272;-55
2022/01/31 04:49:02;;;;;;;7.00;4.30;;;;;;;20.35;25.12;94237.84;4942324;28;99954;-56
2022/01/31 04:51:28;;;;;;;8.32;4.72;;;;;;;20.36;24.91;94233.16;4945102;28;99764;-57
2022/01/31 04:53:53;;;;;;;7.40;4.28;;;;;;;20.36;25.19;94231.16;4942021;28;98160;-56
2022/01/31 04:56:19;;;;;;;9.02;4.40;;;;;;;20.35;24.99;94232.34;4942755;28;98175;-57
2022/01/31 04:58:44;;;;;;;10.55;4.45;;;;;;;20.32;25.02;94230.44;4943143;28;97924;-58
2022/01/31 05:01:10;;;;;;;7.43;4.60;;;;;;;20.34;24.95;94233.53;4941023;28;99714;-56
2022/01/31 05:03:36;;;;;;;8.88;4.13;;;;;;;20.28;24.44;94226.97;4942851;28;97002;-51
2022/01/31 05:06:01;;;;;;;5.55;3.83;;;;;;;20.30;24.61;94238.31;4943949;28;98087;-57
2022/01/31 05:08:28;;;;;;;6.50;3.95;;;;;;;20.28;24.84;94232.47;4940987;28;99390;-56
2022/01/31 05:10:54;;;;;;;8.55;4.07;;;;;;;20.26;24.91;94219.13;4944536;28;99128;-58
2022/01/31 05:13:20;;;;;;;6.40;4.00;;;;;;;20.24;24.59;94226.22;4941274;28;97038;-56
2022/01/31 05:15:45;;;;;;;4.65;3.47;;;;;;;20.19;24.58;94226.66;4942284;28;97042;-58
2022/01/31 05:18:11;;;;;;;6.20;3.50;;;;;;;20.16;24.60;94222.00;4942037;28;99912;-55
2022/01/31 05:20:36;;;;;;;7.25;3.50;;;;;;;20.17;24.93;94226.28;4941785;28;99465;-56
2022/01/31 05:23:04;;;;;;;9.68;6.82;;;;;;;20.18;24.98;94225.88;4950244;28;97260;-55
2022/01/31 05:25:30;;;;;;;5.78;3.55;;;;;;;20.13;25.31;94224.34;4940261;28;98569;-58
2022/01/31 05:27:55;;;;;;;8.27;3.55;;;;;;;20.22;25.15;94225.84;4942672;28;99524;-59
2022/01/31 05:30:24;;;;;;;6.93;3.45;;;;;;;20.09;24.94;94223.63;4941858;28;99583;-55
2022/01/31 05:32:50;;;;;;;6.55;3.30;;;;;;;20.16;24.95;94224.72;4949961;28;97459;-58
2022/01/31 05:35:15;;;;;;;9.00;3.30;;;;;;;20.12;24.89;94222.81;4955669;28;96965;-58
2022/01/31 05:37:42;;;;;;;7.97;3.70;;;;;;;20.13;25.07;94221.63;4956438;28;99546;-58
2022/01/31 05:40:07;;;;;;;8.45;3.58;;;;;;;20.17;24.97;94226.28;4958407;28;99342;-58
2022/01/31 05:42:33;;;;;;;7.05;3.50;;;;;;;20.09;24.73;94226.34;4958169;28;96676;-57
2022/01/31 05:44:58;;;;;;;6.90;3.90;;;;;;;20.04;24.91;94221.31;4958708;28;96887;-58
2022/01/31 05:47:24;;;;;;;5.82;3.45;;;;;;;19.96;25.10;94222.56;4958124;28;99710;-59
2022/01/31 05:49:49;;;;;;;5.10;3.25;;;;;;;20.01;24.83;94224.84;4958027;28;99455;-60
2022/01/31 05:52:15;;;;;;;5.30;3.20;;;;;;;19.97;24.79;94221.38;4958737;28;96555;-59
2022/01/31 05:54:41;;;;;;;8.65;3.85;;;;;;;19.96;24.71;94214.34;4990443;28;97276;-59
2022/01/31 05:57:07;;;;;;;6.00;3.38;;;;;;;20.04;24.59;94226.78;4958125;28;99512;-57
2022/01/31 05:59:32;;;;;;;6.63;2.70;;;;;;;19.93;24.85;94224.16;4958346;28;99544;-56
2022/01/31 06:01:58;;;;;;;6.75;3.58;;;;;;;19.98;25.00;94225.66;4958219;28;98361;-57
2022/01/31 06:04:32;;;;;;;5.22;2.75;;;;;;;20.03;24.74;94227.97;4958519;28;96922;-54
2022/01/31 06:06:58;;;;;;;5.10;2.67;;;;;;;19.99;24.75;94232.72;4957410;28;99545;-57
2022/01/31 06:09:26;;;;;;;9.10;3.00;;;;;;;19.99;24.63;94232.72;4957693;28;99446;-57
2022/01/31 06:11:51;;;;;;;8.25;2.92;;;;;;;19.99;24.42;94232.72;4958242;28;96779;-57
2022/01/31 06:14:17;;;;;;;4.03;2.70;;;;;;;19.97;24.59;94235.06;4958105;28;96688;-59
2022/01/31 06:16:42;;;;;;;7.30;3.08;;;;;;;19.96;24.71;94228.03;4957698;28;99618;-58
2022/01/31 06:19:08;;;;;;;7.57;3.33;;;;;;;20.03;24.42;94222.50;4957867;28;99247;-57
2022/01/31 06:21:33;;;;;;;4.25;2.70;;;;;;;20.04;24.32;94229.53;4957955;28;97882;-54
2022/01/31 06:23:59;;;;;;;5.15;2.70;;;;;;;20.04;24.65;94224.06;4958482;28;96984;-58
2022/01/31 06:26:24;;;;;;;3.80;2.58;;;;;;;20.02;24.64;94231.13;4957528;28;99661;-57
2022/01/31 06:28:50;;;;;;;3.50;2.47;;;;;;;20.01;24.50;94222.13;4957328;28;99486;-59
2022/01/31 06:31:15;;;;;;;5.85;2.70;;;;;;;20.08;24.34;94218.53;4957736;28;96557;-54
2022/01/31 06:33:41;;;;;;;5.53;2.67;;;;;;;20.08;24.23;94208.34;4958413;28;96912;-57
2022/01/31 06:36:06;;;;;;;4.40;2.55;;;;;;;20.03;24.55;94200.56;4957311;28;99650;-55
2022/01/31 06:38:35;;;;;;;5.53;2.50;;;;;;;20.08;24.54;94202.06;4957057;28;99377;-60
2022/01/31 06:41:00;;;;;;;7.55;2.67;;;;;;;20.07;24.59;94195.81;4957519;28;97313;-59
2022/01/31 06:43:26;;;;;;;4.55;2.60;;;;;;;20.04;24.25;94184.88;4957763;28;96895;-59
2022/01/31 06:45:51;;;;;;;3.10;2.58;;;;;;;20.10;24.57;94184.03;4957147;28;99258;-57
2022/01/31 06:48:17;;;;;;;4.28;2.55;;;;;;;20.10;24.49;94184.03;4957076;28;99563;-56
2022/01/31 06:50:42;;;;;;;4.70;2.72;;;;;;;20.14;24.15;94178.50;4957681;28;96719;-59
2022/01/31 06:53:07;;;;;;;6.60;2.42;;;;;;;20.16;24.55;94186.34;4957707;28;96758;-56
2022/01/31 06:55:34;;;;;;;6.03;2.83;;;;;;;20.12;24.60;94191.84;4956490;28;99057;-56
2022/01/31 06:58:00;;;;;;;5.03;2.20;;;;;;;20.10;24.50;94189.53;4957110;28;99282;-59
2022/01/31 07:00:26;;;;;;;3.67;2.17;;;;;;;20.11;24.68;94190.28;4957168;28;96682;-57
2022/01/31 07:02:51;;;;;;;6.13;2.53;;;;;;;20.12;24.38;94187.16;4957467;28;96872;-59
2022/01/31 07:05:17;;;;;;;6.90;2.47;;;;;;;20.14;24.23;94187.53;4956921;28;99356;-57
2022/01/31 07:07:43;;;;;;;3.70;2.47;;;;;;;20.09;24.59;94177.00;4956845;28;99151;-56
2022/01/31 07:10:09;;;;;;;5.10;2.70;;;;;;;20.08;24.37;94174.66;4957337;28;96695;-59
2022/01/31 07:12:38;;;;;;;4.95;3.08;;;;;;;20.09;24.23;94166.03;4957745;28;96862;-58
2022/01/31 07:15:08;;;;;;;5.40;2.88;;;;;;;20.08;24.60;94164.47;4956815;28;99661;-54
2022/01/31 07:17:37;;;;;;;8.60;4.65;;;;;;;20.07;24.33;94179.38;4956870;28;100268;-58
2022/01/31 07:20:05;;;;;;;7.50;3.97;;;;;;;20.12;24.37;94176.19;4956609;28;96686;-58
2022/01/31 07:22:36;;;;;;;11.10;4.95;;;;;;;20.06;24.40;94169.59;4957029;28;96818;-57
2022/01/31 07:25:04;;;;;;;12.85;6.13;;;;;;;20.11;24.46;94160.94;4957288;28;98242;-58
2022/01/31 07:27:30;;;;;;;13.25;6.82;;;;;;;20.16;24.30;94165.19;4987446;28;99189;-56
2022/01/31 07:29:55;;;;;;;10.40;5.50;;;;;;;20.01;24.35;94150.09;4957186;28;96626;-57
2022/01/31 07:32:21;;;;;;;7.70;4.63;;;;;;;20.01;24.57;94141.84;4957011;28;96948;-56
2022/01/31 07:34:49;;;;;;;9.52;5.40;;;;;;;20.14;24.62;94143.66;4956493;28;99761;-59
2022/01/31 07:37:15;;;;;;;9.15;5.88;;;;;;;20.17;24.61;94138.56;4956175;28;99040;-57
2022/01/31 07:39:41;;;;;;;10.00;6.38;;;;;;;20.17;24.29;94127.59;4956946;28;96594;-58
2022/01/31 07:42:07;;;;;;;11.13;5.93;;;;;;;20.10;24.36;94129.22;4956439;28;97085;-57
2022/01/31 07:44:32;;;;;;;11.13;6.50;;;;;;;20.12;24.44;94126.84;4955728;28;99531;-55
2022/01/31 07:46:58;;;;;;;13.90;7.00;;;;;;;20.16;24.21;94128.78;4956485;28;99709;-57
2022/01/31 07:49:24;;;;;;;15.32;7.53;;;;;;;20.12;24.35;94137.81;4956887;28;96866;-57
2022/01/31 07:51:49;;;;;;;9.80;5.95;;;;;;;20.17;24.55;94133.06;4956609;28;96954;-57
2022/01/31 07:54:15;;;;;;;11.73;6.28;;;;;;;20.20;24.40;94130.28;4956166;28;97935;-57
2022/01/31 07:56:40;;;;;;;14.57;7.97;;;;;;;20.26;24.59;94130.63;4955822;28;98983;-55
2022/01/31 07:59:06;;;;;;;11.60;7.30;;;;;;;20.23;24.69;94128.69;4955844;28;96753;-58
2022/01/31 08:01:31;;;;;;;11.93;6.93;;;;;;;20.24;24.75;94127.50;4956548;28;96923;-54
2022/01/31 08:03:57;;;;;;;10.40;6.05;;;;;;;20.20;24.54;94116.56;4987757;28;99617;-59
2022/01/31 08:06:22;;;;;;;15.10;7.38;;;;;;;20.21;24.62;94122.84;4955640;28;99302;-58
2022/01/31 08:08:48;;;;;;;10.48;6.63;;;;;;;20.23;24.62;94121.22;4955817;28;96782;-56
2022/01/31 08:11:14;;;;;;;11.18;6.63;;;;;;;20.23;24.75;94125.94;4956358;28;96741;-59
2022/01/31 08:13:40;;;;;;;12.55;7.60;;;;;;;20.25;24.77;94129.06;4955572;28;99427;-59
2022/01/31 08:18:38;;;;;;;10.32;6.53;;;;;;;20.22;24.63;94132.63;4956440;28;96735;-57
2022/01/31 08:21:04;;;;;;;11.45;7.43;;;;;;;20.21;24.50;94133.81;4956160;28;96970;-56
2022/01/31 08:23:32;;;;;;;11.48;6.40;;;;;;;20.20;24.34;94132.25;4955712;28;99005;-59
2022/01/31 08:26:00;;;;;;;12.20;7.22;;;;;;;20.22;24.52;94130.66;4955925;28;99179;-55
2022/01/31 08:28:39;;;;;;;10.38;6.18;;;;;;;20.25;24.32;94118.09;4956201;28;96659;-58
2022/01/31 08:31:15;;;;;;;8.68;5.78;;;;;;;20.24;24.53;94113.78;4956348;28;96824;-58
2022/01/31 08:33:49;;;;;;;9.88;5.88;;;;;;;20.20;24.17;94104.84;4955568;28;97933;-58
2022/01/31 08:36:15;;;;;;;10.32;5.70;;;;;;;20.20;24.01;94126.78;4955309;28;99439;-55
2022/01/31 08:38:41;;;;;;;9.35;5.43;;;;;;;20.17;24.25;94133.84;4955812;28;96755;-58
2022/01/31 08:41:07;;;;;;;8.75;6.28;;;;;;;20.24;24.38;94139.25;4955987;28;96855;-55
2022/01/31 08:43:33;;;;;;;9.35;5.57;;;;;;;20.20;24.41;94154.19;4955660;28;99778;-58
2022/01/31 08:45:59;;;;;;;9.93;5.68;;;;;;;20.20;24.27;94137.72;4970955;28;97967;-57
2022/01/31 08:48:24;;;;;;;10.45;5.78;;;;;;;20.19;24.47;94147.16;4955999;28;96663;-57
2022/01/31 08:50:50;;;;;;;10.85;5.90;;;;;;;20.14;24.43;94146.41;4956289;28;96951;-59
2022/01/31 08:53:16;;;;;;;10.95;5.40;;;;;;;20.19;24.36;94144.41;4955108;28;99595;-59
2022/01/31 08:55:50;;;;;;;8.05;5.10;;;;;;;20.16;24.57;94137.00;4955316;28;99445;-59
2022/01/31 08:58:16;;;;;;;7.55;5.03;;;;;;;20.20;24.60;94137.72;4986200;28;96566;-58
2022/01/31 09:00:42;;;;;;;11.88;5.35;;;;;;;20.09;24.67;94127.66;4955463;28;96912;-56
2022/01/31 09:05:36;;;;;;;10.80;5.32;;;;;;;20.17;24.29;94127.59;4955211;28;97694;-54
2022/01/31 09:08:02;;;;;;;9.23;5.15;;;;;;;20.17;24.28;94128.34;4956033;28;96694;-57
2022/01/31 09:10:27;;;;;;;8.38;4.95;;;;;;;20.24;24.59;94122.03;4956018;28;96964;-59
2022/01/31 09:12:52;;;;;;;8.35;4.53;;;;;;;20.19;24.35;94125.97;4957725;28;100062;-57
2022/01/31 09:15:18;;;;;;;7.10;4.35;;;;;;;20.15;24.36;94119.75;4959256;28;97247;-57
2022/01/31 09:17:43;;;;;;;7.63;4.70;;;;;;;20.12;24.35;94101.38;4959441;28;97458;-54
2022/01/31 09:20:09;;;;;;;7.22;4.20;;;;;;;20.20;24.35;94100.09;4959125;28;96934;-57
2022/01/31 09:22:35;;;;;;;6.85;4.13;;;;;;;20.17;24.33;94092.69;4957980;28;99787;-56
2022/01/31 09:25:01;;;;;;;6.80;4.10;;;;;;;20.20;24.47;94099.34;4958656;28;99199;-56
2022/01/31 09:27:27;;;;;;;8.13;4.32;;;;;;;20.21;24.33;94074.25;4958901;28;96584;-58
2022/01/31 09:29:53;;;;;;;8.10;4.00;;;;;;;20.19;24.43;94070.38;4959047;28;96929;-58
2022/01/31 09:32:22;;;;;;;6.78;3.80;;;;;;;20.22;24.31;94066.81;4958332;28;99452;-57
2022/01/31 09:34:48;;;;;;;5.03;3.50;;;;;;;20.26;24.29;94064.81;4958425;28;99570;-55
2022/01/31 09:37:14;;;;;;;5.47;3.42;;;;;;;20.39;24.08;94074.00;4955697;28;96865;-59
2022/01/31 09:39:42;;;;;;;6.55;3.78;;;;;;;20.39;24.47;94067.75;4956692;28;96840;-56
2022/01/31 09:42:13;;;;;;;6.43;3.75;;;;;;;20.43;24.20;94074.75;4955633;28;99106;-59
2022/01/31 09:49:30;;;;;;;5.30;3.42;;;;;;;20.51;24.11;94059.00;4956196;28;97023;-57
2022/01/31 09:51:56;;;;;;;5.22;3.28;;;;;;;20.57;24.08;94056.53;4955675;28;97759;-59
2022/01/31 09:54:24;;;;;;;4.68;2.80;;;;;;;20.63;23.91;94043.91;4955700;28;99437;-60
2022/01/31 09:56:49;;;;;;;6.68;3.30;;;;;;;20.69;23.91;94042.28;4955915;28;96587;-60
2022/01/31 09:59:16;;;;;;;6.47;3.05;;;;;;;20.76;23.79;94024.16;4955914;28;97228;-57
2022/01/31 10:01:42;;;;;;;4.07;3.00;;;;;;;20.77;23.63;94040.22;4955136;28;99589;-56
2022/01/31 10:04:14;;;;;;;4.07;2.75;;;;;;;20.77;24.23;94021.00;4955692;28;98177;-58
2022/01/31 10:06:39;;;;;;;8.23;2.85;;;;;;;20.78;24.09;94002.59;4955753;28;96705;-56
2022/01/31 10:09:07;;;;;;;5.50;2.70;;;;;;;20.77;24.02;94009.22;4955679;28;97003;-55
2022/01/31 10:11:41;;;;;;;4.90;2.60;;;;;;;20.78;24.09;94010.81;4954997;28;99600;-58
2022/01/31 10:16:57;;;;;;;3.97;2.53;;;;;;;20.80;24.14;93983.72;4956337;28;97257;-55
2022/01/31 10:19:23;;;;;;;9.32;3.15;;;;;;;20.79;24.12;93973.94;4955737;28;96992;-58
2022/01/31 10:21:59;;;;;;;4.68;2.67;;;;;;;20.85;23.78;93980.50;4954858;28;99558;-56
2022/01/31 10:24:26;;;;;;;6.57;2.75;;;;;;;20.90;23.80;93952.59;4955137;28;99335;-57
2022/01/31 10:26:51;;;;;;;6.38;2.65;;;;;;;20.88;23.85;93944.00;4955521;28;96799;-58
2022/01/31 10:29:19;;;;;;;6.55;2.75;;;;;;;20.98;23.81;93948.50;4955616;28;96917;-55
2022/01/31 10:32:12;;;;;;;4.10;2.65;;;;;;;21.06;23.91;93942.91;4955073;28;99442;-57
2022/01/31 10:34:40;;;;;;;12.15;2.70;;;;;;;21.10;23.54;93940.88;4955233;28;99220;-56
2022/01/31 10:37:09;;;;;;;6.75;2.70;;;;;;;21.14;23.60;93945.13;4953176;28;96596;-54
2022/01/31 10:53:49;;;;;;;4.00;2.22;;;;;;;21.39;23.43;93885.41;4953949;28;97694;-58
2022/01/31 10:56:14;;;;;;;7.63;2.63;;;;;;;21.33;23.54;93863.13;4955087;28;99724;-55
2022/01/31 10:59:03;;;;;;;5.18;2.60;;;;;;;21.44;23.39;93860.19;4954721;28;96845;-57
2022/01/31 11:01:28;;;;;;;5.97;2.42;;;;;;;21.52;23.43;93869.81;4954900;28;96750;-58
2022/01/31 11:03:54;;;;;;;4.60;2.47;;;;;;;21.54;23.41;93867.41;4954231;28;99103;-58
2022/01/31 11:06:20;;;;;;;5.80;2.40;;;;;;;21.58;22.99;93850.88;4953204;28;99510;-56
2022/01/31 11:08:47;;;;;;;4.40;2.50;;;;;;;21.64;23.09;93865.69;4954835;28;96768;-54
2022/01/31 11:11:12;;;;;;;7.38;2.40;;;;;;;21.70;22.92;93858.50;4954666;28;96980;-58
2022/01/31 11:13:38;;;;;;;4.00;1.98;;;;;;;21.73;23.04;93862.38;4954308;28;99768;-54
2022/01/31 11:16:05;;;;;;;6.15;3.70;;;;;;;21.80;23.18;93867.72;4954237;28;99383;-59
2022/01/31 11:18:31;;;;;;;6.80;2.25;;;;;;;21.90;23.16;93861.22;4954723;28;96769;-58
2022/01/31 11:21:06;;;;;;;5.63;2.60;;;;;;;21.91;22.93;93853.72;4954964;28;96910;-56
2022/01/31 11:23:38;;;;;;;5.00;2.38;;;;;;;21.96;22.84;93835.97;4954361;28;99303;-58
2022/01/31 11:26:03;;;;;;;4.83;2.40;;;;;;;21.99;22.80;93841.38;4954304;28;99882;-57
2022/01/31 11:28:31;;;;;;;4.65;2.38;;;;;;;22.06;23.04;93835.69;4952950;28;96720;-58
2022/01/31 11:30:56;;;;;;;4.20;2.40;;;;;;;22.09;22.98;93833.28;4953151;28;96947;-58
2022/01/31 11:33:23;;;;;;;4.93;2.60;;;;;;;22.11;23.08;93820.66;4954010;28;99265;-56
2022/01/31 11:35:49;;;;;;;6.45;2.78;;;;;;;22.16;22.78;93822.88;4985756;28;99479;-56
2022/01/31 11:38:15;;;;;;;5.38;2.35;;;;;;;22.16;23.04;93822.88;4954008;28;96721;-54
2022/01/31 11:40:41;;;;;;;3.17;2.40;;;;;;;22.19;22.88;93821.28;4985930;28;96953;-56
2022/01/31 11:43:06;;;;;;;7.78;2.88;;;;;;;22.11;23.14;93793.16;4985491;28;99106;-58
2022/01/31 11:45:39;;;;;;;5.90;2.58;;;;;;;22.24;22.93;93800.72;4969324;28;99458;-56
2022/01/31 11:48:08;;;;;;;5.13;2.60;;;;;;;22.29;23.06;93797.44;4954192;28;96898;-57
2022/01/31 11:50:42;;;;;;;3.90;2.58;;;;;;;22.30;23.09;93793.50;4954649;28;97360;-56
2022/01/31 11:53:07;;;;;;;5.43;2.42;;;;;;;22.28;22.88;93773.91;4953421;28;99591;-57